Hillsboro, Alabama
Current Conditions -  °F | °C
As of 7:06 PM on Sunday 23 Nov 2014 (Local Time) from KDCU Reporting Station
Overcast Overcast  
Wind Chill: 63°   Ceiling: 3600
Heat Index: 63°   Visibility: 10mi
Dew Point: 57°   Wind: 21mph
Humidity: 82%   Direction: 200°SSW
Pressure: 29.54"   Gusts: 30mph
Location:  34.64°N, 87.19°W
Report Text: KDCU 240106Z AUTO 20018G26KT 10SM FEW021 BKN036 OVC046 17/14 A2954 RMK AO2 PK WND 19030/0056 RAE0059 P0000
Loading
Personal Weather Stations






























Interactive Weather Map New forecast layout! Learn more

10-Day Weather Forecast

Advertisements
Track Severe Weather on mobile